Terminal Aerodrome Forecast
Issued by NWS Charleston, WV

Current Version | Previous Version | Graphics & Text | Print | Product List | Glossary On
Versions: 1 2 3 4 5 6 7 8 9 10 11 12 13 14 15 16 17 18 19 20 21 22 23 24 25 26 27 28 29
000
FTUS41 KRLX 150400 AAB
TAFCRW
TAF AMD
KCRW 150410Z 1504/1524 00000KT 1SM BR FEW025
      TEMPO 1504/1506 1/2SM FG BKN001
     FM150600 00000KT 1/4SM FG VV001
     FM151300 00000KT 2SM BR BKN001
     FM151400 00000KT 5SM BR SCT002
     FM151500 22004KT P6SM SCT150=

USA.gov is the U.S. government's official web portal to all federal, state and local government web resources and services.